Guy V. Molinari — WDB8295 — position and weather

sailwx.info

Track history (hours):
 
Tides and Currents Weather Stations Pressure Air Temp Water Temp Dewpoint Dewpoint Depression Visibility Wind Speed Wind Dir Waves Ship Positions

Guy V. Molinari

Owner: CITY OF NEW YORK, Brooklyn, NY. More information available from US FCC via Universal Licensing System and Coast Guard Vessel Documentation Center.

Last reported at 2017-Nov-24 11:01 UTC. Time now 2017-Nov-24 11:05 UTC.
Position N 40°39' W 074°04'.

Length 95 m; draft 4.1 m.

Type: Passenger vessel. MMSI: 366952790.

Date/timePositionNaut miles runAvg speedWind from/ knotsBaromVisibWave heightAir tempDewpointWater temp
2017-Nov-24 11:01N 40°39' W 074°04'0 0.1
2017-Nov-24 10:28N 40°39' W 074°04'0 0.0
2017-Nov-24 09:58N 40°39' W 074°04'0 0.0
2017-Nov-24 09:28N 40°39' W 074°04'0 0.0
2017-Nov-24 08:58N 40°39' W 074°04'0 0.0
2017-Nov-24 08:28N 40°39' W 074°04'0 0.0
2017-Nov-24 07:58N 40°39' W 074°04'0 0.0
2017-Nov-24 07:28N 40°39' W 074°04'0 0.0
2017-Nov-24 06:58N 40°39' W 074°04'0 0.0
2017-Nov-24 06:28N 40°39' W 074°04'0 0.0
2017-Nov-24 05:58N 40°39' W 074°04'0 0.0
2017-Nov-24 05:28N 40°39' W 074°04'0 0.0
2017-Nov-24 04:58N 40°39' W 074°04'0 0.0
2017-Nov-24 04:29N 40°39' W 074°04'4 7.6
2017-Nov-24 03:55N 40°42' W 074°01'410.5
2017-Nov-24 03:30N 40°39' W 074°04'4 8.7
2017-Nov-24 03:01N 40°42' W 074°01'4 8.6
2017-Nov-24 02:31N 40°39' W 074°04'4 8.5
2017-Nov-24 02:00N 40°42' W 074°01'4 8.6
2017-Nov-24 01:31N 40°39' W 074°04'4 8.5
2017-Nov-24 01:00N 40°42' W 074°01'4 8.6
2017-Nov-24 00:30N 40°39' W 074°04'4 8.6
2017-Nov-24 00:00N 40°42' W 074°01'4 7.3
2017-Nov-23 23:26N 40°39' W 074°04'4 9.5
2017-Nov-23 22:59N 40°42' W 074°01'4 9.1
2017-Nov-23 22:30N 40°39' W 074°04'4 8.6
2017-Nov-23 22:00N 40°42' W 074°01'4 8.5
2017-Nov-23 21:30N 40°39' W 074°04'0 0.0
2017-Nov-23 20:59N 40°39' W 074°04'4 9.0
2017-Nov-23 20:30N 40°42' W 074°01'4 8.7
2017-Nov-23 20:01N 40°39' W 074°04'0 0.0
2017-Nov-23 19:26N 40°39' W 074°04'410.2
2017-Nov-23 19:00N 40°42' W 074°01'4 8.6
2017-Nov-23 18:31N 40°39' W 074°04'0 0.0
2017-Nov-23 18:01N 40°39' W 074°04'4 8.6
2017-Nov-23 17:30N 40°42' W 074°01'4 8.6
2017-Nov-23 17:00N 40°39' W 074°04'0 0.0
2017-Nov-23 16:30N 40°39' W 074°04'4 8.6
2017-Nov-23 16:00N 40°42' W 074°01'4 8.6
2017-Nov-23 15:31N 40°39' W 074°04'0 0.1
2017-Nov-23 14:55N 40°39' W 074°04'410.3
2017-Nov-23 14:30N 40°42' W 074°01'4 8.6
2017-Nov-23 14:00N 40°39' W 074°04'4 8.6
2017-Nov-23 13:30N 40°42' W 074°01'4 8.6
2017-Nov-23 13:00N 40°39' W 074°04'4 8.6
2017-Nov-23 12:30N 40°42' W 074°01'4 8.5
2017-Nov-23 12:01N 40°39' W 074°04'0 0.0
2017-Nov-23 11:30N 40°39' W 074°04'0 0.0
2017-Nov-23 11:00N 40°39' W 074°04'0 0.0
2017-Nov-23 10:31N 40°39' W 074°04'0 0.0
2017-Nov-23 10:01N 40°39' W 074°04'0 0.0
2017-Nov-23 09:31N 40°39' W 074°04'0 0.0
2017-Nov-23 09:01N 40°39' W 074°04'0 0.0
2017-Nov-23 08:19N 40°39' W 074°04'0 0.0
2017-Nov-23 08:00N 40°39' W 074°04'0 0.0
2017-Nov-23 07:30N 40°39' W 074°04'0 0.0
2017-Nov-23 07:00N 40°39' W 074°04'0 0.0
2017-Nov-23 06:30N 40°39' W 074°04'0 0.0
2017-Nov-23 06:00N 40°39' W 074°04'0 0.0
2017-Nov-23 05:30N 40°39' W 074°04'0 0.0
2017-Nov-23 05:00N 40°39' W 074°04'0 0.0
2017-Nov-23 04:30N 40°39' W 074°04'0 0.0
2017-Nov-23 04:00N 40°39' W 074°04'0 0.0
2017-Nov-23 03:30N 40°39' W 074°04'0 0.0
2017-Nov-23 03:00N 40°39' W 074°04'0 0.0
2017-Nov-23 02:30N 40°39' W 074°04'0 0.0
2017-Nov-23 02:00N 40°39' W 074°04'4 8.7
2017-Nov-23 01:30N 40°42' W 074°01'4 8.6
2017-Nov-23 01:01N 40°39' W 074°04'2 4.8
2017-Nov-23 00:31N 40°41' W 074°02'1 1.2
2017-Nov-23 00:00N 40°41' W 074°02'2 4.3
2017-Nov-22 23:30N 40°39' W 074°03'2 4.3
2017-Nov-22 23:00N 40°41' W 074°02'2 4.4
2017-Nov-22 22:31N 40°39' W 074°03'2 4.1
2017-Nov-22 22:01N 40°41' W 074°02'3 5.9
2017-Nov-22 21:30N 40°39' W 074°04'0 0.0
2017-Nov-22 21:01N 40°39' W 074°04'4 8.6
2017-Nov-22 20:31N 40°42' W 074°01'4 8.6
2017-Nov-22 20:00N 40°39' W 074°04'0 0.0
2017-Nov-22 19:31N 40°39' W 074°04'  
2017-Nov-20 00:29N 40°39' W 074°04'0 0.0
2017-Nov-19 23:59N 40°39' W 074°04'0 0.0
2017-Nov-19 23:29N 40°39' W 074°04'0 0.0
2017-Nov-19 22:59N 40°39' W 074°04'0 0.0
2017-Nov-19 22:29N 40°39' W 074°04'0 0.0
2017-Nov-19 21:59N 40°39' W 074°04'0 0.0
2017-Nov-19 21:29N 40°39' W 074°04'0 0.0
2017-Nov-19 20:59N 40°39' W 074°04'0 0.0
2017-Nov-19 20:29N 40°39' W 074°04'0 0.0
2017-Nov-19 19:59N 40°39' W 074°04'0 0.0
2017-Nov-19 19:29N 40°39' W 074°04'0 0.0
2017-Nov-19 18:59N 40°39' W 074°04'0 0.0
2017-Nov-19 18:29N 40°39' W 074°04'0 0.0
2017-Nov-19 17:59N 40°39' W 074°04'0 0.0
2017-Nov-19 17:29N 40°39' W 074°04'0 0.0
2017-Nov-19 16:59N 40°39' W 074°04'0 0.0
2017-Nov-19 16:29N 40°39' W 074°04'0 0.0
2017-Nov-19 15:59N 40°39' W 074°04'0 0.0
2017-Nov-19 15:29N 40°39' W 074°04'0 0.0
2017-Nov-19 14:59N 40°39' W 074°04'0 0.0
2017-Nov-19 14:29N 40°39' W 074°04'0 0.0
2017-Nov-19 13:59N 40°39' W 074°04'0 0.0
2017-Nov-19 13:29N 40°39' W 074°04'0 0.0
2017-Nov-19 12:59N 40°39' W 074°04'0 0.0
2017-Nov-19 12:29N 40°39' W 074°04'0 0.0
2017-Nov-19 11:59N 40°39' W 074°04'0 0.0
2017-Nov-19 11:29N 40°39' W 074°04'0 0.0
2017-Nov-19 10:59N 40°39' W 074°04'0 0.0
2017-Nov-19 10:29N 40°39' W 074°04'0 0.0
2017-Nov-19 09:59N 40°39' W 074°04'0 0.0
2017-Nov-19 09:29N 40°39' W 074°04'0 0.0
2017-Nov-19 08:59N 40°39' W 074°04'0 0.0
2017-Nov-19 08:29N 40°39' W 074°04'0 0.0
2017-Nov-19 07:59N 40°39' W 074°04'0 0.0
2017-Nov-19 07:29N 40°39' W 074°04'0 0.0
2017-Nov-19 06:59N 40°39' W 074°04'0 0.0
2017-Nov-19 06:29N 40°39' W 074°04'0 0.0
2017-Nov-19 05:59N 40°39' W 074°04'0 0.0
2017-Nov-19 05:29N 40°39' W 074°04'0 0.0
2017-Nov-19 04:59N 40°39' W 074°04'0 0.0
2017-Nov-19 04:29N 40°39' W 074°04'0 0.0
2017-Nov-19 03:59N 40°39' W 074°04'0 0.0
2017-Nov-19 03:29N 40°39' W 074°04'0 0.0
2017-Nov-19 02:59N 40°39' W 074°04'0 0.0
2017-Nov-19 02:29N 40°39' W 074°04'0 0.0
2017-Nov-19 01:59N 40°39' W 074°04'0 0.0
2017-Nov-19 01:29N 40°39' W 074°04'0 0.0
2017-Nov-19 00:59N 40°39' W 074°04'0 0.0
2017-Nov-19 00:29N 40°39' W 074°04'0 0.0
2017-Nov-18 23:59N 40°39' W 074°04'0 0.0
2017-Nov-18 23:29N 40°39' W 074°04'0 0.0
2017-Nov-18 22:59N 40°39' W 074°04'0 0.0
2017-Nov-18 22:29N 40°39' W 074°04'0 0.0
2017-Nov-18 21:59N 40°39' W 074°04'0 0.0
2017-Nov-18 21:29N 40°39' W 074°04'0 0.0
2017-Nov-18 20:59N 40°39' W 074°04'0 0.0
2017-Nov-18 20:29N 40°39' W 074°04'0 0.0
2017-Nov-18 19:59N 40°39' W 074°04'0 0.0
2017-Nov-18 19:29N 40°39' W 074°04'0 0.0
2017-Nov-18 18:59N 40°39' W 074°04'0 0.0
2017-Nov-18 18:29N 40°39' W 074°04'0 0.0
2017-Nov-18 17:59N 40°39' W 074°04'0 0.0
2017-Nov-18 17:29N 40°39' W 074°04'0 0.0
2017-Nov-18 16:59N 40°39' W 074°04'0 0.0
2017-Nov-18 16:29N 40°39' W 074°04'0 0.0
2017-Nov-18 15:59N 40°39' W 074°04'0 0.0
2017-Nov-18 15:29N 40°39' W 074°04'0 0.0
2017-Nov-18 14:59N 40°39' W 074°04'0 0.0
2017-Nov-18 14:29N 40°39' W 074°04'0 0.0
2017-Nov-18 13:59N 40°39' W 074°04'0 0.0
2017-Nov-18 13:29N 40°39' W 074°04'0 0.0
2017-Nov-18 12:59N 40°39' W 074°04'0 0.0
2017-Nov-18 12:29N 40°39' W 074°04'0 0.0
2017-Nov-18 11:59N 40°39' W 074°04'0 0.0
2017-Nov-18 11:29N 40°39' W 074°04'0 0.0
2017-Nov-18 10:59N 40°39' W 074°04'0 0.0
2017-Nov-18 10:29N 40°39' W 074°04'0 0.0
2017-Nov-18 09:59N 40°39' W 074°04'0 0.0
2017-Nov-18 09:29N 40°39' W 074°04'0 0.0
2017-Nov-18 08:59N 40°39' W 074°04'0 0.0
2017-Nov-18 08:29N 40°39' W 074°04'0 0.0
2017-Nov-18 07:59N 40°39' W 074°04'0 0.0
2017-Nov-18 07:29N 40°39' W 074°04'0 0.0
2017-Nov-18 06:59N 40°39' W 074°04'0 0.0
2017-Nov-18 06:29N 40°39' W 074°04'0 0.1
2017-Nov-18 06:00N 40°39' W 074°04'0 0.2
2017-Nov-18 05:31N 40°39' W 074°04'0 0.0
2017-Nov-18 05:01N 40°39' W 074°04'4 8.6
2017-Nov-18 04:30N 40°42' W 074°01'4 8.6
2017-Nov-18 04:00N 40°39' W 074°04'0 0.0
2017-Nov-18 03:30N 40°39' W 074°04'4 8.6
2017-Nov-18 03:00N 40°42' W 074°01'4 8.6
2017-Nov-18 02:31N 40°39' W 074°04'0 0.1
2017-Nov-18 02:00N 40°39' W 074°04'0 0.1
2017-Nov-18 01:31N 40°39' W 074°04'4 8.6
2017-Nov-18 01:00N 40°42' W 074°01'4 8.6
2017-Nov-18 00:31N 40°39' W 074°04'2 3.3
2017-Nov-18 00:01N 40°40' W 074°03'1 2.8
2017-Nov-17 23:30N 40°41' W 074°02'2 3.4
2017-Nov-17 23:00N 40°40' W 074°03'2 3.9
2017-Nov-17 22:31N 40°41' W 074°02'3 5.2
2017-Nov-17 22:01N 40°39' W 074°04'3 5.9
2017-Nov-17 21:31N 40°42' W 074°01'4 7.4
2017-Nov-17 21:00N 40°39' W 074°04'0 0.0
2017-Nov-17 20:29N 40°39' W 074°04'0 0.0
2017-Nov-17 19:59N 40°39' W 074°04'0 0.0
2017-Nov-17 19:29N 40°39' W 074°04'0 0.0
2017-Nov-17 18:59N 40°39' W 074°04'0 0.0
2017-Nov-17 18:30N 40°39' W 074°04'0 0.0
2017-Nov-17 18:00N 40°39' W 074°04'4 8.6
2017-Nov-17 17:31N 40°42' W 074°01'4 8.6
2017-Nov-17 17:01N 40°39' W 074°04'0 0.0
2017-Nov-17 16:31N 40°39' W 074°04'0 0.0
2017-Nov-17 16:00N 40°39' W 074°04'4 8.6
2017-Nov-17 15:31N 40°42' W 074°01'4 8.6
2017-Nov-17 15:01N 40°39' W 074°04'3 5.3
2017-Nov-17 14:30N 40°41' W 074°02'1 1.1
2017-Nov-17 14:00N 40°40' W 074°03'0 0.9
2017-Nov-17 13:31N 40°41' W 074°02'0 0.9
2017-Nov-17 13:00N 40°41' W 074°02'2 4.1
2017-Nov-17 12:31N 40°39' W 074°03'2 4.4
2017-Nov-17 12:00N 40°41' W 074°02'3 6.3
2017-Nov-17 11:31N 40°39' W 074°04'1 1.2
2017-Nov-17 11:01N 40°39' W 074°04'0 0.1
2017-Nov-17 10:31N 40°39' W 074°04'1 1.1
2017-Nov-17 09:58N 40°39' W 074°04'0 0.0
2017-Nov-17 09:28N 40°39' W 074°04'0 0.0
2017-Nov-17 08:58N 40°39' W 074°04'0 0.0
2017-Nov-17 08:28N 40°39' W 074°04'0 0.0
2017-Nov-17 07:58N 40°39' W 074°04'0 0.0
2017-Nov-17 07:28N 40°39' W 074°04'0 0.0
2017-Nov-17 06:58N 40°39' W 074°04'0 0.0
2017-Nov-17 06:28N 40°39' W 074°04'0 0.1
2017-Nov-17 06:00N 40°39' W 074°04'0 0.1
2017-Nov-17 05:30N 40°39' W 074°04'0 0.0
2017-Nov-17 05:00N 40°39' W 074°04'4 8.6
2017-Nov-17 04:30N 40°42' W 074°01'4 8.5
2017-Nov-17 04:00N 40°39' W 074°04'0 0.0
2017-Nov-17 03:30N 40°39' W 074°04'4 8.6
2017-Nov-17 03:01N 40°42' W 074°01'4 8.6
2017-Nov-17 02:30N 40°39' W 074°04'0 0.1
2017-Nov-17 02:01N 40°39' W 074°04'0 0.1
2017-Nov-17 01:31N 40°39' W 074°04'4 8.6
2017-Nov-17 01:00N 40°42' W 074°01'4 8.6
2017-Nov-17 00:30N 40°39' W 074°04'2 3.9
2017-Nov-17 00:01N 40°40' W 074°03'1 1.3
2017-Nov-16 23:31N 40°41' W 074°02'1 1.3
2017-Nov-16 23:01N 40°40' W 074°03'2 3.5
2017-Nov-16 22:30N 40°42' W 074°01'3 6.5
2017-Nov-16 22:01N 40°39' W 074°04'4 7.5
2017-Nov-16 21:30N 40°42' W 074°01'4 8.3
2017-Nov-16 21:01N 40°39' W 074°04'0 0.2
2017-Nov-16 20:30N 40°39' W 074°04'0 0.0
2017-Nov-16 20:00N 40°39' W 074°04'0 0.0
2017-Nov-16 19:30N 40°39' W 074°04'0 0.0
2017-Nov-16 19:00N 40°39' W 074°04'0 0.0
2017-Nov-16 18:30N 40°39' W 074°04'0 0.0
2017-Nov-16 18:01N 40°39' W 074°04'0 0.0
2017-Nov-16 17:30N 40°39' W 074°04'0 0.0
2017-Nov-16 17:00N 40°39' W 074°04'0 0.0
2017-Nov-16 16:30N 40°39' W 074°04'0 0.0
2017-Nov-16 16:00N 40°39' W 074°04'0 0.0
2017-Nov-16 15:30N 40°39' W 074°04'0 0.2
2017-Nov-16 15:01N 40°39' W 074°04'1 2.8
2017-Nov-16 14:30N 40°40' W 074°03'2 3.8
2017-Nov-16 14:00N 40°41' W 074°02'2 3.7
2017-Nov-16 13:30N 40°40' W 074°03'2 3.9
2017-Nov-16 13:00N 40°41' W 074°02'3 6.1
2017-Nov-16 12:30N 40°39' W 074°04'4 7.9
2017-Nov-16 12:00N 40°42' W 074°01'4 8.6
2017-Nov-16 11:31N 40°39' W 074°04'0 0.2
2017-Nov-16 11:00N 40°39' W 074°04'0 0.0
2017-Nov-16 10:30N 40°39' W 074°04'0 0.0
2017-Nov-16 10:00N 40°39' W 074°04'0 0.0
2017-Nov-16 09:30N 40°39' W 074°04'0 0.1
2017-Nov-16 09:00N 40°39' W 074°04'0 0.0
2017-Nov-16 08:30N 40°39' W 074°04'0 0.0
2017-Nov-16 08:00N 40°39' W 074°04'0 0.0
2017-Nov-16 07:30N 40°39' W 074°04'0 0.0
2017-Nov-16 07:00N 40°39' W 074°04'0 0.0
2017-Nov-16 06:30N 40°39' W 074°04'0 0.1
2017-Nov-16 06:00N 40°39' W 074°04'0 0.3
2017-Nov-16 05:30N 40°39' W 074°04'0 0.1
2017-Nov-16 05:01N 40°39' W 074°04'4 8.6
2017-Nov-16 04:31N 40°42' W 074°01'4 8.6
2017-Nov-16 04:01N 40°39' W 074°04'0 0.0
2017-Nov-16 03:30N 40°39' W 074°04'4 8.7
2017-Nov-16 03:00N 40°42' W 074°01'4 8.6
2017-Nov-16 02:30N 40°39' W 074°04'0 0.0
2017-Nov-16 02:00N 40°39' W 074°04'0 0.0
2017-Nov-16 01:30N 40°39' W 074°04'4 8.6
2017-Nov-16 01:01N 40°42' W 074°01'4 8.6
2017-Nov-16 00:30N 40°39' W 074°04'2 4.1
2017-Nov-16 00:00N 40°40' W 074°03'0 0.6
2017-Nov-15 23:30N 40°41' W 074°02'0 0.9
2017-Nov-15 23:01N 40°40' W 074°03'2 3.5
2017-Nov-15 22:31N 40°42' W 074°02'3 6.4
2017-Nov-15 22:00N 40°39' W 074°04'4 7.3
2017-Nov-15 21:30N 40°42' W 074°01'4 0.7
2017-Nov-15 15:54N 40°39' W 074°04'4 8.5
2017-Nov-15 15:24N 40°42' W 074°01'410.8
2017-Nov-15 15:01N 40°39' W 074°04'4 5.2
2017-Nov-15 14:11N 40°42' W 074°01'1 6.9
2017-Nov-15 14:01N 40°41' W 074°02'2 3.1
2017-Nov-15 13:30N 40°40' W 074°03'1 2.9
2017-Nov-15 13:01N 40°41' W 074°02'3 5.7
2017-Nov-15 12:31N 40°39' W 074°04'4 7.9
2017-Nov-15 12:00N 40°42' W 074°01'4 8.2
2017-Nov-15 11:30N 40°39' W 074°04'0 0.4
2017-Nov-15 11:01N 40°39' W 074°04'1 1.5
2017-Nov-15 10:30N 40°38' W 074°04'1 1.5
2017-Nov-15 10:00N 40°39' W 074°04'0 0.0
2017-Nov-15 09:30N 40°39' W 074°04'0 0.1
2017-Nov-15 08:59N 40°39' W 074°04'0 0.0
2017-Nov-15 08:29N 40°39' W 074°04'0 0.0
2017-Nov-15 07:59N 40°39' W 074°04'0 0.0
2017-Nov-15 07:29N 40°39' W 074°04'0 0.0
2017-Nov-15 06:59N 40°39' W 074°04'0 0.0
2017-Nov-15 06:29N 40°39' W 074°04'0 0.0
2017-Nov-15 05:59N 40°39' W 074°04'0 0.0
2017-Nov-15 05:30N 40°39' W 074°04'0 0.0
2017-Nov-15 05:00N 40°39' W 074°04'4 8.6
2017-Nov-15 04:30N 40°42' W 074°01'4 8.5
2017-Nov-15 04:00N 40°39' W 074°04'0 0.0
2017-Nov-15 03:30N 40°39' W 074°04'4 8.6
2017-Nov-15 03:00N 40°42' W 074°01'4 8.7
2017-Nov-15 02:30N 40°39' W 074°04'0 0.0
2017-Nov-15 02:00N 40°39' W 074°04'0 0.0
2017-Nov-15 01:30N 40°39' W 074°04'4 8.6
2017-Nov-15 01:00N 40°42' W 074°01'4 8.6
2017-Nov-15 00:30N 40°39' W 074°04'2 4.4
2017-Nov-15 00:00N 40°40' W 074°03'1 1.8
2017-Nov-14 23:31N 40°41' W 074°02'1 2.8
2017-Nov-14 23:00N 40°40' W 074°03'2 4.0
2017-Nov-14 22:30N 40°42' W 074°01'3 6.8
2017-Nov-14 22:00N 40°39' W 074°04'4 7.8
2017-Nov-14 21:31N 40°42' W 074°01'4 0.9
2017-Nov-14 16:53N 40°39' W 074°04'4 8.9
2017-Nov-14 16:24N 40°42' W 074°01'410.8
2017-Nov-14 16:01N 40°39' W 074°04'4 6.9
2017-Nov-14 15:23N 40°42' W 074°01'411.2
2017-Nov-14 15:01N 40°39' W 074°04'2 3.5
2017-Nov-14 14:30N 40°40' W 074°03'1 1.6
2017-Nov-14 14:01N 40°41' W 074°02'1 1.9
2017-Nov-14 13:31N 40°40' W 074°03'1 2.9
2017-Nov-14 13:01N 40°41' W 074°02'3 5.4
2017-Nov-14 12:30N 40°39' W 074°04'3 7.0
2017-Nov-14 12:01N 40°42' W 074°01'4 7.6
2017-Nov-14 11:31N 40°39' W 074°04'  
Track history (hours):
 
Tides and Currents Weather Stations Pressure Air Temp Water Temp Dewpoint Dewpoint Depression Visibility Wind Speed Wind Dir Waves Ship Positions

Guy V. Molinari

Owner: CITY OF NEW YORK, Brooklyn, NY. More information available from US FCC via Universal Licensing System and Coast Guard Vessel Documentation Center.

Last reported at 2017-Nov-24 11:01 UTC. Time now 2017-Nov-24 11:05 UTC.
Position N 40°39' W 074°04'.

Length 95 m; draft 4.1 m.

Type: Passenger vessel. MMSI: 366952790.

Date/timePositionNaut miles runAvg speedWind from/ knotsBaromVisibWave heightAir tempDewpointWater temp
2017-Nov-24 11:01N 40°39' W 074°04'0 0.1
2017-Nov-24 10:28N 40°39' W 074°04'0 0.0
2017-Nov-24 09:58N 40°39' W 074°04'0 0.0
2017-Nov-24 09:28N 40°39' W 074°04'0 0.0
2017-Nov-24 08:58N 40°39' W 074°04'0 0.0
2017-Nov-24 08:28N 40°39' W 074°04'0 0.0
2017-Nov-24 07:58N 40°39' W 074°04'0 0.0
2017-Nov-24 07:28N 40°39' W 074°04'0 0.0
2017-Nov-24 06:58N 40°39' W 074°04'0 0.0
2017-Nov-24 06:28N 40°39' W 074°04'0 0.0
2017-Nov-24 05:58N 40°39' W 074°04'0 0.0
2017-Nov-24 05:28N 40°39' W 074°04'0 0.0
2017-Nov-24 04:58N 40°39' W 074°04'0 0.0
2017-Nov-24 04:29N 40°39' W 074°04'4 7.6
2017-Nov-24 03:55N 40°42' W 074°01'410.5
2017-Nov-24 03:30N 40°39' W 074°04'4 8.7
2017-Nov-24 03:01N 40°42' W 074°01'4 8.6
2017-Nov-24 02:31N 40°39' W 074°04'4 8.5
2017-Nov-24 02:00N 40°42' W 074°01'4 8.6
2017-Nov-24 01:31N 40°39' W 074°04'4 8.5
2017-Nov-24 01:00N 40°42' W 074°01'4 8.6
2017-Nov-24 00:30N 40°39' W 074°04'4 8.6
2017-Nov-24 00:00N 40°42' W 074°01'4 7.3
2017-Nov-23 23:26N 40°39' W 074°04'4 9.5
2017-Nov-23 22:59N 40°42' W 074°01'4 9.1
2017-Nov-23 22:30N 40°39' W 074°04'4 8.6
2017-Nov-23 22:00N 40°42' W 074°01'4 8.5
2017-Nov-23 21:30N 40°39' W 074°04'0 0.0
2017-Nov-23 20:59N 40°39' W 074°04'4 9.0
2017-Nov-23 20:30N 40°42' W 074°01'4 8.7
2017-Nov-23 20:01N 40°39' W 074°04'0 0.0
2017-Nov-23 19:26N 40°39' W 074°04'410.2
2017-Nov-23 19:00N 40°42' W 074°01'4 8.6
2017-Nov-23 18:31N 40°39' W 074°04'0 0.0
2017-Nov-23 18:01N 40°39' W 074°04'4 8.6
2017-Nov-23 17:30N 40°42' W 074°01'4 8.6
2017-Nov-23 17:00N 40°39' W 074°04'0 0.0
2017-Nov-23 16:30N 40°39' W 074°04'4 8.6
2017-Nov-23 16:00N 40°42' W 074°01'4 8.6
2017-Nov-23 15:31N 40°39' W 074°04'0 0.1
2017-Nov-23 14:55N 40°39' W 074°04'410.3
2017-Nov-23 14:30N 40°42' W 074°01'4 8.6
2017-Nov-23 14:00N 40°39' W 074°04'4 8.6
2017-Nov-23 13:30N 40°42' W 074°01'4 8.6
2017-Nov-23 13:00N 40°39' W 074°04'4 8.6
2017-Nov-23 12:30N 40°42' W 074°01'4 8.5
2017-Nov-23 12:01N 40°39' W 074°04'0 0.0
2017-Nov-23 11:30N 40°39' W 074°04'0 0.0
2017-Nov-23 11:00N 40°39' W 074°04'0 0.0
2017-Nov-23 10:31N 40°39' W 074°04'0 0.0
2017-Nov-23 10:01N 40°39' W 074°04'0 0.0
2017-Nov-23 09:31N 40°39' W 074°04'0 0.0
2017-Nov-23 09:01N 40°39' W 074°04'0 0.0
2017-Nov-23 08:19N 40°39' W 074°04'0 0.0
2017-Nov-23 08:00N 40°39' W 074°04'0 0.0
2017-Nov-23 07:30N 40°39' W 074°04'0 0.0
2017-Nov-23 07:00N 40°39' W 074°04'0 0.0
2017-Nov-23 06:30N 40°39' W 074°04'0 0.0
2017-Nov-23 06:00N 40°39' W 074°04'0 0.0
2017-Nov-23 05:30N 40°39' W 074°04'0 0.0
2017-Nov-23 05:00N 40°39' W 074°04'0 0.0
2017-Nov-23 04:30N 40°39' W 074°04'0 0.0
2017-Nov-23 04:00N 40°39' W 074°04'0 0.0
2017-Nov-23 03:30N 40°39' W 074°04'0 0.0
2017-Nov-23 03:00N 40°39' W 074°04'0 0.0
2017-Nov-23 02:30N 40°39' W 074°04'0 0.0
2017-Nov-23 02:00N 40°39' W 074°04'4 8.7
2017-Nov-23 01:30N 40°42' W 074°01'4 8.6
2017-Nov-23 01:01N 40°39' W 074°04'2 4.8
2017-Nov-23 00:31N 40°41' W 074°02'1 1.2
2017-Nov-23 00:00N 40°41' W 074°02'2 4.3
2017-Nov-22 23:30N 40°39' W 074°03'2 4.3
2017-Nov-22 23:00N 40°41' W 074°02'2 4.4
2017-Nov-22 22:31N 40°39' W 074°03'2 4.1
2017-Nov-22 22:01N 40°41' W 074°02'3 5.9
2017-Nov-22 21:30N 40°39' W 074°04'0 0.0
2017-Nov-22 21:01N 40°39' W 074°04'4 8.6
2017-Nov-22 20:31N 40°42' W 074°01'4 8.6
2017-Nov-22 20:00N 40°39' W 074°04'0 0.0
2017-Nov-22 19:31N 40°39' W 074°04'  
2017-Nov-20 00:29N 40°39' W 074°04'0 0.0
2017-Nov-19 23:59N 40°39' W 074°04'0 0.0
2017-Nov-19 23:29N 40°39' W 074°04'0 0.0
2017-Nov-19 22:59N 40°39' W 074°04'0 0.0
2017-Nov-19 22:29N 40°39' W 074°04'0 0.0
2017-Nov-19 21:59N 40°39' W 074°04'0 0.0
2017-Nov-19 21:29N 40°39' W 074°04'0 0.0
2017-Nov-19 20:59N 40°39' W 074°04'0 0.0
2017-Nov-19 20:29N 40°39' W 074°04'0 0.0
2017-Nov-19 19:59N 40°39' W 074°04'0 0.0
2017-Nov-19 19:29N 40°39' W 074°04'0 0.0
2017-Nov-19 18:59N 40°39' W 074°04'0 0.0
2017-Nov-19 18:29N 40°39' W 074°04'0 0.0
2017-Nov-19 17:59N 40°39' W 074°04'0 0.0
2017-Nov-19 17:29N 40°39' W 074°04'0 0.0
2017-Nov-19 16:59N 40°39' W 074°04'0 0.0
2017-Nov-19 16:29N 40°39' W 074°04'0 0.0
2017-Nov-19 15:59N 40°39' W 074°04'0 0.0
2017-Nov-19 15:29N 40°39' W 074°04'0 0.0
2017-Nov-19 14:59N 40°39' W 074°04'0 0.0
2017-Nov-19 14:29N 40°39' W 074°04'0 0.0
2017-Nov-19 13:59N 40°39' W 074°04'0 0.0
2017-Nov-19 13:29N 40°39' W 074°04'0 0.0
2017-Nov-19 12:59N 40°39' W 074°04'0 0.0
2017-Nov-19 12:29N 40°39' W 074°04'0 0.0
2017-Nov-19 11:59N 40°39' W 074°04'0 0.0
2017-Nov-19 11:29N 40°39' W 074°04'0 0.0
2017-Nov-19 10:59N 40°39' W 074°04'0 0.0
2017-Nov-19 10:29N 40°39' W 074°04'0 0.0
2017-Nov-19 09:59N 40°39' W 074°04'0 0.0
2017-Nov-19 09:29N 40°39' W 074°04'0 0.0
2017-Nov-19 08:59N 40°39' W 074°04'0 0.0
2017-Nov-19 08:29N 40°39' W 074°04'0 0.0
2017-Nov-19 07:59N 40°39' W 074°04'0 0.0
2017-Nov-19 07:29N 40°39' W 074°04'0 0.0
2017-Nov-19 06:59N 40°39' W 074°04'0 0.0
2017-Nov-19 06:29N 40°39' W 074°04'0 0.0
2017-Nov-19 05:59N 40°39' W 074°04'0 0.0
2017-Nov-19 05:29N 40°39' W 074°04'0 0.0
2017-Nov-19 04:59N 40°39' W 074°04'0 0.0
2017-Nov-19 04:29N 40°39' W 074°04'0 0.0
2017-Nov-19 03:59N 40°39' W 074°04'0 0.0
2017-Nov-19 03:29N 40°39' W 074°04'0 0.0
2017-Nov-19 02:59N 40°39' W 074°04'0 0.0
2017-Nov-19 02:29N 40°39' W 074°04'0 0.0
2017-Nov-19 01:59N 40°39' W 074°04'0 0.0
2017-Nov-19 01:29N 40°39' W 074°04'0 0.0
2017-Nov-19 00:59N 40°39' W 074°04'0 0.0
2017-Nov-19 00:29N 40°39' W 074°04'0 0.0
2017-Nov-18 23:59N 40°39' W 074°04'0 0.0
2017-Nov-18 23:29N 40°39' W 074°04'0 0.0
2017-Nov-18 22:59N 40°39' W 074°04'0 0.0
2017-Nov-18 22:29N 40°39' W 074°04'0 0.0
2017-Nov-18 21:59N 40°39' W 074°04'0 0.0
2017-Nov-18 21:29N 40°39' W 074°04'0 0.0
2017-Nov-18 20:59N 40°39' W 074°04'0 0.0
2017-Nov-18 20:29N 40°39' W 074°04'0 0.0
2017-Nov-18 19:59N 40°39' W 074°04'0 0.0
2017-Nov-18 19:29N 40°39' W 074°04'0 0.0
2017-Nov-18 18:59N 40°39' W 074°04'0 0.0
2017-Nov-18 18:29N 40°39' W 074°04'0 0.0
2017-Nov-18 17:59N 40°39' W 074°04'0 0.0
2017-Nov-18 17:29N 40°39' W 074°04'0 0.0
2017-Nov-18 16:59N 40°39' W 074°04'0 0.0
2017-Nov-18 16:29N 40°39' W 074°04'0 0.0
2017-Nov-18 15:59N 40°39' W 074°04'0 0.0
2017-Nov-18 15:29N 40°39' W 074°04'0 0.0
2017-Nov-18 14:59N 40°39' W 074°04'0 0.0
2017-Nov-18 14:29N 40°39' W 074°04'0 0.0
2017-Nov-18 13:59N 40°39' W 074°04'0 0.0
2017-Nov-18 13:29N 40°39' W 074°04'0 0.0
2017-Nov-18 12:59N 40°39' W 074°04'0 0.0
2017-Nov-18 12:29N 40°39' W 074°04'0 0.0
2017-Nov-18 11:59N 40°39' W 074°04'0 0.0
2017-Nov-18 11:29N 40°39' W 074°04'0 0.0
2017-Nov-18 10:59N 40°39' W 074°04'0 0.0
2017-Nov-18 10:29N 40°39' W 074°04'0 0.0
2017-Nov-18 09:59N 40°39' W 074°04'0 0.0
2017-Nov-18 09:29N 40°39' W 074°04'0 0.0
2017-Nov-18 08:59N 40°39' W 074°04'0 0.0
2017-Nov-18 08:29N 40°39' W 074°04'0 0.0
2017-Nov-18 07:59N 40°39' W 074°04'0 0.0
2017-Nov-18 07:29N 40°39' W 074°04'0 0.0
2017-Nov-18 06:59N 40°39' W 074°04'0 0.0
2017-Nov-18 06:29N 40°39' W 074°04'0 0.1
2017-Nov-18 06:00N 40°39' W 074°04'0 0.2
2017-Nov-18 05:31N 40°39' W 074°04'0 0.0
2017-Nov-18 05:01N 40°39' W 074°04'4 8.6
2017-Nov-18 04:30N 40°42' W 074°01'4 8.6
2017-Nov-18 04:00N 40°39' W 074°04'0 0.0
2017-Nov-18 03:30N 40°39' W 074°04'4 8.6
2017-Nov-18 03:00N 40°42' W 074°01'4 8.6
2017-Nov-18 02:31N 40°39' W 074°04'0 0.1
2017-Nov-18 02:00N 40°39' W 074°04'0 0.1
2017-Nov-18 01:31N 40°39' W 074°04'4 8.6
2017-Nov-18 01:00N 40°42' W 074°01'4 8.6
2017-Nov-18 00:31N 40°39' W 074°04'2 3.3
2017-Nov-18 00:01N 40°40' W 074°03'1 2.8
2017-Nov-17 23:30N 40°41' W 074°02'2 3.4
2017-Nov-17 23:00N 40°40' W 074°03'2 3.9
2017-Nov-17 22:31N 40°41' W 074°02'3 5.2
2017-Nov-17 22:01N 40°39' W 074°04'3 5.9
2017-Nov-17 21:31N 40°42' W 074°01'4 7.4
2017-Nov-17 21:00N 40°39' W 074°04'0 0.0
2017-Nov-17 20:29N 40°39' W 074°04'0 0.0
2017-Nov-17 19:59N 40°39' W 074°04'0 0.0
2017-Nov-17 19:29N 40°39' W 074°04'0 0.0
2017-Nov-17 18:59N 40°39' W 074°04'0 0.0
2017-Nov-17 18:30N 40°39' W 074°04'0 0.0
2017-Nov-17 18:00N 40°39' W 074°04'4 8.6
2017-Nov-17 17:31N 40°42' W 074°01'4 8.6
2017-Nov-17 17:01N 40°39' W 074°04'0 0.0
2017-Nov-17 16:31N 40°39' W 074°04'0 0.0
2017-Nov-17 16:00N 40°39' W 074°04'4 8.6
2017-Nov-17 15:31N 40°42' W 074°01'4 8.6
2017-Nov-17 15:01N 40°39' W 074°04'3 5.3
2017-Nov-17 14:30N 40°41' W 074°02'1 1.1
2017-Nov-17 14:00N 40°40' W 074°03'0 0.9
2017-Nov-17 13:31N 40°41' W 074°02'0 0.9
2017-Nov-17 13:00N 40°41' W 074°02'2 4.1
2017-Nov-17 12:31N 40°39' W 074°03'2 4.4
2017-Nov-17 12:00N 40°41' W 074°02'3 6.3
2017-Nov-17 11:31N 40°39' W 074°04'1 1.2
2017-Nov-17 11:01N 40°39' W 074°04'0 0.1
2017-Nov-17 10:31N 40°39' W 074°04'1 1.1
2017-Nov-17 09:58N 40°39' W 074°04'0 0.0
2017-Nov-17 09:28N 40°39' W 074°04'0 0.0
2017-Nov-17 08:58N 40°39' W 074°04'0 0.0
2017-Nov-17 08:28N 40°39' W 074°04'0 0.0
2017-Nov-17 07:58N 40°39' W 074°04'0 0.0
2017-Nov-17 07:28N 40°39' W 074°04'0 0.0
2017-Nov-17 06:58N 40°39' W 074°04'0 0.0
2017-Nov-17 06:28N 40°39' W 074°04'0 0.1
2017-Nov-17 06:00N 40°39' W 074°04'0 0.1
2017-Nov-17 05:30N 40°39' W 074°04'0 0.0
2017-Nov-17 05:00N 40°39' W 074°04'4 8.6
2017-Nov-17 04:30N 40°42' W 074°01'4 8.5
2017-Nov-17 04:00N 40°39' W 074°04'0 0.0
2017-Nov-17 03:30N 40°39' W 074°04'4 8.6
2017-Nov-17 03:01N 40°42' W 074°01'4 8.6
2017-Nov-17 02:30N 40°39' W 074°04'0 0.1
2017-Nov-17 02:01N 40°39' W 074°04'0 0.1
2017-Nov-17 01:31N 40°39' W 074°04'4 8.6
2017-Nov-17 01:00N 40°42' W 074°01'4 8.6
2017-Nov-17 00:30N 40°39' W 074°04'2 3.9
2017-Nov-17 00:01N 40°40' W 074°03'1 1.3
2017-Nov-16 23:31N 40°41' W 074°02'1 1.3
2017-Nov-16 23:01N 40°40' W 074°03'2 3.5
2017-Nov-16 22:30N 40°42' W 074°01'3 6.5
2017-Nov-16 22:01N 40°39' W 074°04'4 7.5
2017-Nov-16 21:30N 40°42' W 074°01'4 8.3
2017-Nov-16 21:01N 40°39' W 074°04'0 0.2
2017-Nov-16 20:30N 40°39' W 074°04'0 0.0
2017-Nov-16 20:00N 40°39' W 074°04'0 0.0
2017-Nov-16 19:30N 40°39' W 074°04'0 0.0
2017-Nov-16 19:00N 40°39' W 074°04'0 0.0
2017-Nov-16 18:30N 40°39' W 074°04'0 0.0
2017-Nov-16 18:01N 40°39' W 074°04'0 0.0
2017-Nov-16 17:30N 40°39' W 074°04'0 0.0
2017-Nov-16 17:00N 40°39' W 074°04'0 0.0
2017-Nov-16 16:30N 40°39' W 074°04'0 0.0
2017-Nov-16 16:00N 40°39' W 074°04'0 0.0
2017-Nov-16 15:30N 40°39' W 074°04'0 0.2
2017-Nov-16 15:01N 40°39' W 074°04'1 2.8
2017-Nov-16 14:30N 40°40' W 074°03'2 3.8
2017-Nov-16 14:00N 40°41' W 074°02'2 3.7
2017-Nov-16 13:30N 40°40' W 074°03'2 3.9
2017-Nov-16 13:00N 40°41' W 074°02'3 6.1
2017-Nov-16 12:30N 40°39' W 074°04'4 7.9
2017-Nov-16 12:00N 40°42' W 074°01'4 8.6
2017-Nov-16 11:31N 40°39' W 074°04'0 0.2
2017-Nov-16 11:00N 40°39' W 074°04'0 0.0
2017-Nov-16 10:30N 40°39' W 074°04'0 0.0
2017-Nov-16 10:00N 40°39' W 074°04'0 0.0
2017-Nov-16 09:30N 40°39' W 074°04'0 0.1
2017-Nov-16 09:00N 40°39' W 074°04'0 0.0
2017-Nov-16 08:30N 40°39' W 074°04'0 0.0
2017-Nov-16 08:00N 40°39' W 074°04'0 0.0
2017-Nov-16 07:30N 40°39' W 074°04'0 0.0
2017-Nov-16 07:00N 40°39' W 074°04'0 0.0
2017-Nov-16 06:30N 40°39' W 074°04'0 0.1
2017-Nov-16 06:00N 40°39' W 074°04'0 0.3
2017-Nov-16 05:30N 40°39' W 074°04'0 0.1
2017-Nov-16 05:01N 40°39' W 074°04'4 8.6
2017-Nov-16 04:31N 40°42' W 074°01'4 8.6
2017-Nov-16 04:01N 40°39' W 074°04'0 0.0
2017-Nov-16 03:30N 40°39' W 074°04'4 8.7
2017-Nov-16 03:00N 40°42' W 074°01'4 8.6
2017-Nov-16 02:30N 40°39' W 074°04'0 0.0
2017-Nov-16 02:00N 40°39' W 074°04'0 0.0
2017-Nov-16 01:30N 40°39' W 074°04'4 8.6
2017-Nov-16 01:01N 40°42' W 074°01'4 8.6
2017-Nov-16 00:30N 40°39' W 074°04'2 4.1
2017-Nov-16 00:00N 40°40' W 074°03'0 0.6
2017-Nov-15 23:30N 40°41' W 074°02'0 0.9
2017-Nov-15 23:01N 40°40' W 074°03'2 3.5
2017-Nov-15 22:31N 40°42' W 074°02'3 6.4
2017-Nov-15 22:00N 40°39' W 074°04'4 7.3
2017-Nov-15 21:30N 40°42' W 074°01'4 0.7
2017-Nov-15 15:54N 40°39' W 074°04'4 8.5
2017-Nov-15 15:24N 40°42' W 074°01'410.8
2017-Nov-15 15:01N 40°39' W 074°04'4 5.2
2017-Nov-15 14:11N 40°42' W 074°01'1 6.9
2017-Nov-15 14:01N 40°41' W 074°02'2 3.1
2017-Nov-15 13:30N 40°40' W 074°03'1 2.9
2017-Nov-15 13:01N 40°41' W 074°02'3 5.7
2017-Nov-15 12:31N 40°39' W 074°04'4 7.9
2017-Nov-15 12:00N 40°42' W 074°01'4 8.2
2017-Nov-15 11:30N 40°39' W 074°04'0 0.4
2017-Nov-15 11:01N 40°39' W 074°04'1 1.5
2017-Nov-15 10:30N 40°38' W 074°04'1 1.5
2017-Nov-15 10:00N 40°39' W 074°04'0 0.0
2017-Nov-15 09:30N 40°39' W 074°04'0 0.1
2017-Nov-15 08:59N 40°39' W 074°04'0 0.0
2017-Nov-15 08:29N 40°39' W 074°04'0 0.0
2017-Nov-15 07:59N 40°39' W 074°04'0 0.0
2017-Nov-15 07:29N 40°39' W 074°04'0 0.0
2017-Nov-15 06:59N 40°39' W 074°04'0 0.0
2017-Nov-15 06:29N 40°39' W 074°04'0 0.0
2017-Nov-15 05:59N 40°39' W 074°04'0 0.0
2017-Nov-15 05:30N 40°39' W 074°04'0 0.0
2017-Nov-15 05:00N 40°39' W 074°04'4 8.6
2017-Nov-15 04:30N 40°42' W 074°01'4 8.5
2017-Nov-15 04:00N 40°39' W 074°04'0 0.0
2017-Nov-15 03:30N 40°39' W 074°04'4 8.6
2017-Nov-15 03:00N 40°42' W 074°01'4 8.7
2017-Nov-15 02:30N 40°39' W 074°04'0 0.0
2017-Nov-15 02:00N 40°39' W 074°04'0 0.0
2017-Nov-15 01:30N 40°39' W 074°04'4 8.6
2017-Nov-15 01:00N 40°42' W 074°01'4 8.6
2017-Nov-15 00:30N 40°39' W 074°04'2 4.4
2017-Nov-15 00:00N 40°40' W 074°03'1 1.8
2017-Nov-14 23:31N 40°41' W 074°02'1 2.8
2017-Nov-14 23:00N 40°40' W 074°03'2 4.0
2017-Nov-14 22:30N 40°42' W 074°01'3 6.8
2017-Nov-14 22:00N 40°39' W 074°04'4 7.8
2017-Nov-14 21:31N 40°42' W 074°01'4 0.9
2017-Nov-14 16:53N 40°39' W 074°04'4 8.9
2017-Nov-14 16:24N 40°42' W 074°01'410.8
2017-Nov-14 16:01N 40°39' W 074°04'4 6.9
2017-Nov-14 15:23N 40°42' W 074°01'411.2
2017-Nov-14 15:01N 40°39' W 074°04'2 3.5
2017-Nov-14 14:30N 40°40' W 074°03'1 1.6
2017-Nov-14 14:01N 40°41' W 074°02'1 1.9
2017-Nov-14 13:31N 40°40' W 074°03'1 2.9
2017-Nov-14 13:01N 40°41' W 074°02'3 5.4
2017-Nov-14 12:30N 40°39' W 074°04'3 7.0
2017-Nov-14 12:01N 40°42' W 074°01'4 7.6
2017-Nov-14 11:31N 40°39' W 074°04'  

Dump ship's entire track history